sensor_id;sensor_type;location;lat;lon;timestamp;P1;durP1;ratioP1;P2;durP2;ratioP2
13327;SDS011;6733;51.044;3.746;2023-07-29T00:01:36;5.53;;;2.50;;
13327;SDS011;6733;51.044;3.746;2023-07-29T00:04:02;3.20;;;2.50;;
13327;SDS011;6733;51.044;3.746;2023-07-29T00:06:28;3.73;;;2.37;;
13327;SDS011;6733;51.044;3.746;2023-07-29T00:08:54;3.97;;;2.53;;
13327;SDS011;6733;51.044;3.746;2023-07-29T00:11:20;2.83;;;2.57;;
13327;SDS011;6733;51.044;3.746;2023-07-29T00:13:46;4.20;;;2.90;;
13327;SDS011;6733;51.044;3.746;2023-07-29T00:16:15;3.70;;;2.80;;
13327;SDS011;6733;51.044;3.746;2023-07-29T00:18:43;3.73;;;2.87;;
13327;SDS011;6733;51.044;3.746;2023-07-29T00:21:09;2.87;;;2.67;;
13327;SDS011;6733;51.044;3.746;2023-07-29T00:23:36;2.90;;;2.60;;
13327;SDS011;6733;51.044;3.746;2023-07-29T00:26:02;3.50;;;3.10;;
13327;SDS011;6733;51.044;3.746;2023-07-29T00:28:28;4.53;;;3.77;;
13327;SDS011;6733;51.044;3.746;2023-07-29T00:30:54;4.63;;;4.10;;
13327;SDS011;6733;51.044;3.746;2023-07-29T00:33:21;5.43;;;3.70;;
13327;SDS011;6733;51.044;3.746;2023-07-29T00:35:47;4.50;;;3.37;;
13327;SDS011;6733;51.044;3.746;2023-07-29T00:38:13;6.10;;;3.63;;
13327;SDS011;6733;51.044;3.746;2023-07-29T00:40:39;3.60;;;3.30;;
13327;SDS011;6733;51.044;3.746;2023-07-29T00:43:05;3.43;;;3.13;;
13327;SDS011;6733;51.044;3.746;2023-07-29T00:45:32;4.87;;;3.10;;
13327;SDS011;6733;51.044;3.746;2023-07-29T00:47:59;3.93;;;2.83;;
13327;SDS011;6733;51.044;3.746;2023-07-29T00:50:26;3.57;;;3.27;;
13327;SDS011;6733;51.044;3.746;2023-07-29T00:52:54;2.97;;;2.63;;
13327;SDS011;6733;51.044;3.746;2023-07-29T00:55:21;3.33;;;3.03;;
13327;SDS011;6733;51.044;3.746;2023-07-29T00:57:47;5.70;;;3.23;;
13327;SDS011;6733;51.044;3.746;2023-07-29T01:00:15;3.70;;;3.00;;
13327;SDS011;6733;51.044;3.746;2023-07-29T01:02:42;4.07;;;2.77;;
13327;SDS011;6733;51.044;3.746;2023-07-29T01:05:09;3.37;;;2.90;;
13327;SDS011;6733;51.044;3.746;2023-07-29T01:07:41;2.50;;;2.30;;
13327;SDS011;6733;51.044;3.746;2023-07-29T01:15:42;4.53;;;2.77;;
13327;SDS011;6733;51.044;3.746;2023-07-29T01:18:30;3.43;;;2.80;;
13327;SDS011;6733;51.044;3.746;2023-07-29T01:21:04;5.33;;;3.23;;
13327;SDS011;6733;51.044;3.746;2023-07-29T01:23:36;5.20;;;3.27;;
13327;SDS011;6733;51.044;3.746;2023-07-29T01:26:02;4.10;;;2.93;;
13327;SDS011;6733;51.044;3.746;2023-07-29T01:28:29;4.40;;;3.20;;
13327;SDS011;6733;51.044;3.746;2023-07-29T01:30:57;4.20;;;3.20;;
13327;SDS011;6733;51.044;3.746;2023-07-29T01:33:25;4.77;;;3.30;;
13327;SDS011;6733;51.044;3.746;2023-07-29T01:36:02;5.10;;;3.73;;
13327;SDS011;6733;51.044;3.746;2023-07-29T01:38:35;3.60;;;3.23;;
13327;SDS011;6733;51.044;3.746;2023-07-29T01:41:04;4.77;;;3.67;;
13327;SDS011;6733;51.044;3.746;2023-07-29T01:43:33;4.00;;;3.53;;
13327;SDS011;6733;51.044;3.746;2023-07-29T01:46:02;5.87;;;3.37;;
13327;SDS011;6733;51.044;3.746;2023-07-29T01:48:28;4.13;;;3.60;;
13327;SDS011;6733;51.044;3.746;2023-07-29T01:50:57;3.43;;;2.90;;
13327;SDS011;6733;51.044;3.746;2023-07-29T01:53:23;7.47;;;3.57;;
13327;SDS011;6733;51.044;3.746;2023-07-29T01:55:49;4.50;;;3.53;;
13327;SDS011;6733;51.044;3.746;2023-07-29T01:58:15;6.17;;;3.03;;
13327;SDS011;6733;51.044;3.746;2023-07-29T02:00:42;5.03;;;3.30;;
13327;SDS011;6733;51.044;3.746;2023-07-29T02:03:08;4.50;;;3.23;;
13327;SDS011;6733;51.044;3.746;2023-07-29T02:05:34;5.40;;;3.40;;
13327;SDS011;6733;51.044;3.746;2023-07-29T02:08:00;4.97;;;3.77;;
13327;SDS011;6733;51.044;3.746;2023-07-29T02:10:27;4.07;;;3.37;;
13327;SDS011;6733;51.044;3.746;2023-07-29T02:12:53;4.90;;;3.10;;
13327;SDS011;6733;51.044;3.746;2023-07-29T02:15:19;6.23;;;3.27;;
13327;SDS011;6733;51.044;3.746;2023-07-29T02:17:45;4.17;;;3.33;;
13327;SDS011;6733;51.044;3.746;2023-07-29T02:20:12;4.27;;;3.50;;
13327;SDS011;6733;51.044;3.746;2023-07-29T02:22:39;5.20;;;3.03;;
13327;SDS011;6733;51.044;3.746;2023-07-29T02:25:05;3.93;;;3.53;;
13327;SDS011;6733;51.044;3.746;2023-07-29T02:27:31;4.80;;;3.67;;
13327;SDS011;6733;51.044;3.746;2023-07-29T02:29:58;4.87;;;3.20;;
13327;SDS011;6733;51.044;3.746;2023-07-29T02:32:25;4.27;;;3.10;;
13327;SDS011;6733;51.044;3.746;2023-07-29T02:35:15;4.83;;;3.10;;
13327;SDS011;6733;51.044;3.746;2023-07-29T02:38:06;4.47;;;3.53;;
13327;SDS011;6733;51.044;3.746;2023-07-29T02:40:56;3.90;;;3.20;;
13327;SDS011;6733;51.044;3.746;2023-07-29T02:43:50;5.80;;;3.30;;
13327;SDS011;6733;51.044;3.746;2023-07-29T02:46:42;4.13;;;3.10;;
13327;SDS011;6733;51.044;3.746;2023-07-29T02:49:33;4.00;;;2.90;;
13327;SDS011;6733;51.044;3.746;2023-07-29T02:52:24;5.20;;;3.20;;
13327;SDS011;6733;51.044;3.746;2023-07-29T02:55:15;3.23;;;2.93;;
13327;SDS011;6733;51.044;3.746;2023-07-29T02:57:41;3.30;;;3.00;;
13327;SDS011;6733;51.044;3.746;2023-07-29T03:00:07;4.53;;;3.50;;
13327;SDS011;6733;51.044;3.746;2023-07-29T03:02:34;3.30;;;3.00;;
13327;SDS011;6733;51.044;3.746;2023-07-29T03:05:00;3.97;;;2.83;;
13327;SDS011;6733;51.044;3.746;2023-07-29T03:07:26;4.17;;;3.07;;
13327;SDS011;6733;51.044;3.746;2023-07-29T03:09:52;4.00;;;2.93;;
13327;SDS011;6733;51.044;3.746;2023-07-29T03:12:19;5.27;;;2.90;;
13327;SDS011;6733;51.044;3.746;2023-07-29T03:14:47;5.00;;;3.10;;
13327;SDS011;6733;51.044;3.746;2023-07-29T03:17:14;3.10;;;2.67;;
13327;SDS011;6733;51.044;3.746;2023-07-29T03:19:40;6.80;;;3.10;;
13327;SDS011;6733;51.044;3.746;2023-07-29T03:22:07;3.53;;;2.97;;
13327;SDS011;6733;51.044;3.746;2023-07-29T03:24:33;4.23;;;3.10;;
13327;SDS011;6733;51.044;3.746;2023-07-29T03:27:02;3.17;;;2.87;;
13327;SDS011;6733;51.044;3.746;2023-07-29T03:29:28;3.80;;;2.97;;
13327;SDS011;6733;51.044;3.746;2023-07-29T03:31:54;5.37;;;3.50;;
13327;SDS011;6733;51.044;3.746;2023-07-29T03:34:21;3.63;;;3.10;;
13327;SDS011;6733;51.044;3.746;2023-07-29T03:36:47;4.80;;;3.37;;
13327;SDS011;6733;51.044;3.746;2023-07-29T03:39:13;4.37;;;3.67;;
13327;SDS011;6733;51.044;3.746;2023-07-29T03:41:40;4.33;;;3.27;;
13327;SDS011;6733;51.044;3.746;2023-07-29T03:44:06;3.30;;;3.00;;
13327;SDS011;6733;51.044;3.746;2023-07-29T03:46:32;5.43;;;3.20;;
13327;SDS011;6733;51.044;3.746;2023-07-29T03:48:58;4.90;;;4.10;;
13327;SDS011;6733;51.044;3.746;2023-07-29T03:51:24;4.43;;;3.70;;
13327;SDS011;6733;51.044;3.746;2023-07-29T03:53:51;4.57;;;3.63;;
13327;SDS011;6733;51.044;3.746;2023-07-29T03:56:17;5.77;;;3.80;;
13327;SDS011;6733;51.044;3.746;2023-07-29T03:58:43;5.47;;;3.60;;
13327;SDS011;6733;51.044;3.746;2023-07-29T04:01:11;5.07;;;3.57;;
13327;SDS011;6733;51.044;3.746;2023-07-29T04:03:37;5.23;;;3.57;;
13327;SDS011;6733;51.044;3.746;2023-07-29T04:06:03;4.07;;;3.67;;
13327;SDS011;6733;51.044;3.746;2023-07-29T04:08:29;4.57;;;3.57;;
13327;SDS011;6733;51.044;3.746;2023-07-29T04:10:55;3.80;;;3.50;;
13327;SDS011;6733;51.044;3.746;2023-07-29T04:13:21;5.77;;;3.43;;
13327;SDS011;6733;51.044;3.746;2023-07-29T04:15:48;4.80;;;2.97;;
13327;SDS011;6733;51.044;3.746;2023-07-29T04:18:14;6.47;;;3.93;;
13327;SDS011;6733;51.044;3.746;2023-07-29T04:20:40;5.30;;;3.67;;
13327;SDS011;6733;51.044;3.746;2023-07-29T04:23:06;4.17;;;3.23;;
13327;SDS011;6733;51.044;3.746;2023-07-29T04:25:32;5.00;;;3.80;;
13327;SDS011;6733;51.044;3.746;2023-07-29T04:27:58;3.97;;;3.57;;
13327;SDS011;6733;51.044;3.746;2023-07-29T04:30:25;6.30;;;4.00;;
13327;SDS011;6733;51.044;3.746;2023-07-29T04:32:51;5.13;;;3.57;;
13327;SDS011;6733;51.044;3.746;2023-07-29T04:35:17;6.10;;;3.53;;
13327;SDS011;6733;51.044;3.746;2023-07-29T04:37:43;4.13;;;3.40;;
13327;SDS011;6733;51.044;3.746;2023-07-29T04:40:09;4.07;;;3.13;;
13327;SDS011;6733;51.044;3.746;2023-07-29T04:42:36;4.73;;;3.00;;
13327;SDS011;6733;51.044;3.746;2023-07-29T04:45:02;3.93;;;3.30;;
13327;SDS011;6733;51.044;3.746;2023-07-29T04:47:29;4.80;;;3.20;;
13327;SDS011;6733;51.044;3.746;2023-07-29T04:49:55;5.33;;;3.17;;
13327;SDS011;6733;51.044;3.746;2023-07-29T04:52:21;4.17;;;3.10;;
13327;SDS011;6733;51.044;3.746;2023-07-29T04:54:48;3.87;;;3.17;;
13327;SDS011;6733;51.044;3.746;2023-07-29T04:57:14;4.47;;;3.20;;
13327;SDS011;6733;51.044;3.746;2023-07-29T04:59:40;4.17;;;3.03;;
13327;SDS011;6733;51.044;3.746;2023-07-29T05:02:06;4.07;;;2.93;;
13327;SDS011;6733;51.044;3.746;2023-07-29T05:04:32;3.70;;;3.13;;
13327;SDS011;6733;51.044;3.746;2023-07-29T05:06:58;4.80;;;3.67;;
13327;SDS011;6733;51.044;3.746;2023-07-29T05:09:24;3.30;;;3.00;;
13327;SDS011;6733;51.044;3.746;2023-07-29T05:11:51;3.50;;;2.80;;
13327;SDS011;6733;51.044;3.746;2023-07-29T05:14:17;4.67;;;3.40;;
13327;SDS011;6733;51.044;3.746;2023-07-29T05:16:43;3.77;;;3.17;;
13327;SDS011;6733;51.044;3.746;2023-07-29T05:19:10;4.40;;;3.70;;
13327;SDS011;6733;51.044;3.746;2023-07-29T05:21:37;3.50;;;2.83;;
13327;SDS011;6733;51.044;3.746;2023-07-29T05:24:04;4.90;;;3.13;;
13327;SDS011;6733;51.044;3.746;2023-07-29T05:26:30;4.67;;;2.77;;
13327;SDS011;6733;51.044;3.746;2023-07-29T05:28:56;6.53;;;3.23;;
13327;SDS011;6733;51.044;3.746;2023-07-29T05:31:22;3.60;;;3.20;;
13327;SDS011;6733;51.044;3.746;2023-07-29T05:33:49;3.77;;;2.70;;
13327;SDS011;6733;51.044;3.746;2023-07-29T05:36:15;3.73;;;2.70;;
13327;SDS011;6733;51.044;3.746;2023-07-29T05:38:41;3.13;;;2.47;;
13327;SDS011;6733;51.044;3.746;2023-07-29T05:41:07;2.80;;;2.50;;
13327;SDS011;6733;51.044;3.746;2023-07-29T05:43:33;2.50;;;2.30;;
13327;SDS011;6733;51.044;3.746;2023-07-29T05:46:00;3.60;;;2.20;;
13327;SDS011;6733;51.044;3.746;2023-07-29T05:48:27;2.90;;;2.40;;
13327;SDS011;6733;51.044;3.746;2023-07-29T05:50:53;3.77;;;2.80;;
13327;SDS011;6733;51.044;3.746;2023-07-29T05:53:19;3.57;;;2.77;;
13327;SDS011;6733;51.044;3.746;2023-07-29T05:55:45;4.13;;;2.83;;
13327;SDS011;6733;51.044;3.746;2023-07-29T05:58:11;5.50;;;2.80;;
13327;SDS011;6733;51.044;3.746;2023-07-29T06:00:38;3.30;;;2.40;;
13327;SDS011;6733;51.044;3.746;2023-07-29T06:03:04;5.83;;;2.50;;
13327;SDS011;6733;51.044;3.746;2023-07-29T06:05:30;3.83;;;2.60;;
13327;SDS011;6733;51.044;3.746;2023-07-29T06:07:56;3.50;;;2.50;;
13327;SDS011;6733;51.044;3.746;2023-07-29T06:10:22;2.20;;;2.00;;
13327;SDS011;6733;51.044;3.746;2023-07-29T06:12:49;2.23;;;2.00;;
13327;SDS011;6733;51.044;3.746;2023-07-29T06:15:15;2.63;;;2.30;;
13327;SDS011;6733;51.044;3.746;2023-07-29T06:17:41;2.60;;;2.40;;
13327;SDS011;6733;51.044;3.746;2023-07-29T06:20:07;2.80;;;2.10;;
13327;SDS011;6733;51.044;3.746;2023-07-29T06:22:34;2.80;;;2.20;;
13327;SDS011;6733;51.044;3.746;2023-07-29T06:25:00;2.83;;;2.03;;
13327;SDS011;6733;51.044;3.746;2023-07-29T06:27:26;3.17;;;2.37;;
13327;SDS011;6733;51.044;3.746;2023-07-29T06:29:53;6.80;;;2.60;;
13327;SDS011;6733;51.044;3.746;2023-07-29T06:32:19;2.43;;;2.20;;
13327;SDS011;6733;51.044;3.746;2023-07-29T06:34:45;2.43;;;2.23;;
13327;SDS011;6733;51.044;3.746;2023-07-29T06:37:11;2.93;;;2.43;;
13327;SDS011;6733;51.044;3.746;2023-07-29T06:39:38;2.77;;;2.40;;
13327;SDS011;6733;51.044;3.746;2023-07-29T06:42:04;2.17;;;1.93;;
13327;SDS011;6733;51.044;3.746;2023-07-29T06:44:30;3.27;;;2.40;;
13327;SDS011;6733;51.044;3.746;2023-07-29T06:46:57;4.63;;;2.73;;
13327;SDS011;6733;51.044;3.746;2023-07-29T06:49:23;2.50;;;2.20;;
13327;SDS011;6733;51.044;3.746;2023-07-29T06:51:50;3.17;;;2.20;;
13327;SDS011;6733;51.044;3.746;2023-07-29T06:54:16;3.03;;;2.57;;
13327;SDS011;6733;51.044;3.746;2023-07-29T06:56:42;4.37;;;2.47;;
13327;SDS011;6733;51.044;3.746;2023-07-29T06:59:08;2.23;;;2.03;;
13327;SDS011;6733;51.044;3.746;2023-07-29T07:01:35;5.80;;;2.20;;
13327;SDS011;6733;51.044;3.746;2023-07-29T07:04:01;3.10;;;2.07;;
13327;SDS011;6733;51.044;3.746;2023-07-29T07:06:27;2.37;;;2.10;;
13327;SDS011;6733;51.044;3.746;2023-07-29T07:08:53;2.30;;;2.10;;
13327;SDS011;6733;51.044;3.746;2023-07-29T07:11:19;2.40;;;2.20;;
13327;SDS011;6733;51.044;3.746;2023-07-29T07:13:45;2.43;;;2.23;;
13327;SDS011;6733;51.044;3.746;2023-07-29T07:16:11;3.20;;;2.47;;
13327;SDS011;6733;51.044;3.746;2023-07-29T07:18:38;2.23;;;2.00;;
13327;SDS011;6733;51.044;3.746;2023-07-29T07:21:04;2.80;;;2.10;;
13327;SDS011;6733;51.044;3.746;2023-07-29T07:23:30;2.23;;;2.00;;
13327;SDS011;6733;51.044;3.746;2023-07-29T07:25:56;3.60;;;2.07;;
13327;SDS011;6733;51.044;3.746;2023-07-29T07:28:22;3.23;;;2.20;;
13327;SDS011;6733;51.044;3.746;2023-07-29T07:30:48;4.03;;;2.17;;
13327;SDS011;6733;51.044;3.746;2023-07-29T07:33:14;2.50;;;2.13;;
13327;SDS011;6733;51.044;3.746;2023-07-29T07:35:41;3.17;;;2.33;;
13327;SDS011;6733;51.044;3.746;2023-07-29T07:38:08;3.43;;;2.10;;
13327;SDS011;6733;51.044;3.746;2023-07-29T07:40:35;2.40;;;1.93;;
13327;SDS011;6733;51.044;3.746;2023-07-29T07:43:01;3.97;;;2.00;;
13327;SDS011;6733;51.044;3.746;2023-07-29T07:45:28;2.77;;;2.30;;
13327;SDS011;6733;51.044;3.746;2023-07-29T07:47:54;4.83;;;1.90;;
13327;SDS011;6733;51.044;3.746;2023-07-29T07:50:20;3.40;;;2.00;;
13327;SDS011;6733;51.044;3.746;2023-07-29T07:52:46;2.23;;;2.00;;
13327;SDS011;6733;51.044;3.746;2023-07-29T07:55:12;4.03;;;1.93;;
13327;SDS011;6733;51.044;3.746;2023-07-29T07:57:39;2.00;;;1.73;;
13327;SDS011;6733;51.044;3.746;2023-07-29T08:00:05;2.50;;;1.97;;
13327;SDS011;6733;51.044;3.746;2023-07-29T08:02:32;3.47;;;2.00;;
13327;SDS011;6733;51.044;3.746;2023-07-29T08:04:58;2.30;;;2.00;;
13327;SDS011;6733;51.044;3.746;2023-07-29T08:07:24;2.00;;;1.57;;
13327;SDS011;6733;51.044;3.746;2023-07-29T08:09:50;3.40;;;2.00;;
13327;SDS011;6733;51.044;3.746;2023-07-29T08:12:16;2.70;;;2.03;;
13327;SDS011;6733;51.044;3.746;2023-07-29T08:14:43;2.30;;;2.10;;
13327;SDS011;6733;51.044;3.746;2023-07-29T08:17:09;3.17;;;2.20;;
13327;SDS011;6733;51.044;3.746;2023-07-29T08:19:35;2.37;;;1.80;;
13327;SDS011;6733;51.044;3.746;2023-07-29T08:22:02;2.10;;;1.93;;
13327;SDS011;6733;51.044;3.746;2023-07-29T08:24:29;3.47;;;2.10;;
13327;SDS011;6733;51.044;3.746;2023-07-29T08:26:55;3.00;;;2.20;;
13327;SDS011;6733;51.044;3.746;2023-07-29T08:29:21;2.93;;;2.13;;
13327;SDS011;6733;51.044;3.746;2023-07-29T08:31:47;2.70;;;2.33;;
13327;SDS011;6733;51.044;3.746;2023-07-29T08:34:14;4.33;;;2.87;;
13327;SDS011;6733;51.044;3.746;2023-07-29T08:36:40;4.57;;;2.50;;
13327;SDS011;6733;51.044;3.746;2023-07-29T08:39:06;3.33;;;3.03;;
13327;SDS011;6733;51.044;3.746;2023-07-29T08:41:35;3.17;;;2.60;;
13327;SDS011;6733;51.044;3.746;2023-07-29T08:44:11;2.30;;;2.10;;
13327;SDS011;6733;51.044;3.746;2023-07-29T08:46:43;2.87;;;2.17;;
13327;SDS011;6733;51.044;3.746;2023-07-29T08:49:11;2.80;;;2.30;;
13327;SDS011;6733;51.044;3.746;2023-07-29T08:51:39;2.30;;;2.10;;
13327;SDS011;6733;51.044;3.746;2023-07-29T08:54:08;2.73;;;2.20;;
13327;SDS011;6733;51.044;3.746;2023-07-29T08:56:36;4.63;;;2.37;;
13327;SDS011;6733;51.044;3.746;2023-07-29T08:59:02;5.57;;;2.10;;
13327;SDS011;6733;51.044;3.746;2023-07-29T09:01:30;2.80;;;2.00;;
13327;SDS011;6733;51.044;3.746;2023-07-29T09:03:56;4.30;;;2.33;;
13327;SDS011;6733;51.044;3.746;2023-07-29T09:06:23;4.50;;;2.63;;
13327;SDS011;6733;51.044;3.746;2023-07-29T09:08:51;2.60;;;2.40;;
13327;SDS011;6733;51.044;3.746;2023-07-29T09:11:19;2.50;;;1.97;;
13327;SDS011;6733;51.044;3.746;2023-07-29T09:13:46;3.53;;;2.27;;
13327;SDS011;6733;51.044;3.746;2023-07-29T09:16:13;2.60;;;1.90;;
13327;SDS011;6733;51.044;3.746;2023-07-29T09:18:39;3.03;;;2.20;;
13327;SDS011;6733;51.044;3.746;2023-07-29T09:21:06;4.27;;;2.50;;
13327;SDS011;6733;51.044;3.746;2023-07-29T09:23:42;3.10;;;2.47;;
13327;SDS011;6733;51.044;3.746;2023-07-29T09:26:09;2.67;;;2.20;;
13327;SDS011;6733;51.044;3.746;2023-07-29T09:28:37;2.67;;;2.10;;
13327;SDS011;6733;51.044;3.746;2023-07-29T09:31:04;3.00;;;2.33;;
13327;SDS011;6733;51.044;3.746;2023-07-29T09:33:34;3.10;;;2.10;;
13327;SDS011;6733;51.044;3.746;2023-07-29T09:36:12;6.03;;;2.20;;
13327;SDS011;6733;51.044;3.746;2023-07-29T09:38:39;3.70;;;2.17;;
13327;SDS011;6733;51.044;3.746;2023-07-29T09:41:05;2.37;;;2.00;;
13327;SDS011;6733;51.044;3.746;2023-07-29T09:43:32;3.83;;;2.33;;
13327;SDS011;6733;51.044;3.746;2023-07-29T09:45:59;2.70;;;2.13;;
13327;SDS011;6733;51.044;3.746;2023-07-29T09:48:36;3.67;;;2.60;;
13327;SDS011;6733;51.044;3.746;2023-07-29T09:51:13;3.93;;;2.37;;
13327;SDS011;6733;51.044;3.746;2023-07-29T09:53:44;2.70;;;2.30;;
13327;SDS011;6733;51.044;3.746;2023-07-29T09:56:12;4.93;;;2.53;;
13327;SDS011;6733;51.044;3.746;2023-07-29T09:58:39;3.13;;;2.20;;
13327;SDS011;6733;51.044;3.746;2023-07-29T10:01:05;3.17;;;2.43;;
13327;SDS011;6733;51.044;3.746;2023-07-29T10:03:33;3.50;;;2.20;;
13327;SDS011;6733;51.044;3.746;2023-07-29T10:06:01;3.33;;;2.50;;
13327;SDS011;6733;51.044;3.746;2023-07-29T10:08:29;3.83;;;2.50;;
13327;SDS011;6733;51.044;3.746;2023-07-29T10:11:01;2.80;;;2.50;;
13327;SDS011;6733;51.044;3.746;2023-07-29T10:13:27;3.03;;;2.73;;
13327;SDS011;6733;51.044;3.746;2023-07-29T10:15:54;2.83;;;2.50;;
13327;SDS011;6733;51.044;3.746;2023-07-29T10:18:21;5.03;;;2.70;;
13327;SDS011;6733;51.044;3.746;2023-07-29T10:20:51;3.80;;;3.07;;
13327;SDS011;6733;51.044;3.746;2023-07-29T10:23:19;3.93;;;3.10;;
13327;SDS011;6733;51.044;3.746;2023-07-29T10:26:21;3.87;;;3.03;;
13327;SDS011;6733;51.044;3.746;2023-07-29T10:28:43;3.73;;;3.43;;
13327;SDS011;6733;51.044;3.746;2023-07-29T10:31:13;3.37;;;3.03;;
13327;SDS011;6733;51.044;3.746;2023-07-29T10:33:42;5.63;;;3.60;;
13327;SDS011;6733;51.044;3.746;2023-07-29T10:36:09;3.13;;;2.80;;
13327;SDS011;6733;51.044;3.746;2023-07-29T10:38:36;3.70;;;2.60;;
13327;SDS011;6733;51.044;3.746;2023-07-29T10:41:03;2.73;;;2.30;;
13327;SDS011;6733;51.044;3.746;2023-07-29T10:46:18;3.70;;;3.40;;
13327;SDS011;6733;51.044;3.746;2023-07-29T10:53:53;3.50;;;3.20;;
13327;SDS011;6733;51.044;3.746;2023-07-29T10:56:34;3.13;;;2.83;;
13327;SDS011;6733;51.044;3.746;2023-07-29T11:01:42;2.47;;;2.13;;
13327;SDS011;6733;51.044;3.746;2023-07-29T11:20:17;1.80;;;1.70;;
13327;SDS011;6733;51.044;3.746;2023-07-29T11:22:44;2.20;;;2.00;;
13327;SDS011;6733;51.044;3.746;2023-07-29T11:25:11;2.33;;;1.90;;
13327;SDS011;6733;51.044;3.746;2023-07-29T11:27:38;2.30;;;2.17;;
13327;SDS011;6733;51.044;3.746;2023-07-29T11:30:08;2.30;;;1.80;;
13327;SDS011;6733;51.044;3.746;2023-07-29T11:32:39;2.30;;;2.10;;
13327;SDS011;6733;51.044;3.746;2023-07-29T11:35:07;2.37;;;2.17;;
13327;SDS011;6733;51.044;3.746;2023-07-29T11:37:38;1.77;;;1.67;;
13327;SDS011;6733;51.044;3.746;2023-07-29T11:40:05;2.93;;;1.83;;
13327;SDS011;6733;51.044;3.746;2023-07-29T11:42:32;3.60;;;2.30;;
13327;SDS011;6733;51.044;3.746;2023-07-29T11:45:00;4.03;;;2.33;;
13327;SDS011;6733;51.044;3.746;2023-07-29T11:47:28;3.23;;;2.40;;
13327;SDS011;6733;51.044;3.746;2023-07-29T11:49:57;2.13;;;1.93;;
13327;SDS011;6733;51.044;3.746;2023-07-29T11:52:26;2.70;;;2.23;;
13327;SDS011;6733;51.044;3.746;2023-07-29T11:54:53;2.23;;;2.00;;
13327;SDS011;6733;51.044;3.746;2023-07-29T11:57:20;5.37;;;2.30;;
13327;SDS011;6733;51.044;3.746;2023-07-29T11:59:46;2.10;;;2.00;;
13327;SDS011;6733;51.044;3.746;2023-07-29T12:02:13;2.63;;;2.30;;
13327;SDS011;6733;51.044;3.746;2023-07-29T12:04:41;2.53;;;2.33;;
13327;SDS011;6733;51.044;3.746;2023-07-29T12:07:09;2.40;;;2.20;;
13327;SDS011;6733;51.044;3.746;2023-07-29T12:09:37;4.90;;;2.43;;
13327;SDS011;6733;51.044;3.746;2023-07-29T12:12:05;2.63;;;2.17;;
13327;SDS011;6733;51.044;3.746;2023-07-29T12:14:32;2.43;;;1.83;;
13327;SDS011;6733;51.044;3.746;2023-07-29T12:17:02;2.40;;;2.20;;
13327;SDS011;6733;51.044;3.746;2023-07-29T12:19:33;2.60;;;2.40;;
13327;SDS011;6733;51.044;3.746;2023-07-29T12:22:01;2.60;;;1.80;;
13327;SDS011;6733;51.044;3.746;2023-07-29T12:24:32;2.38;;;1.80;;
13327;SDS011;6733;51.044;3.746;2023-07-29T12:27:00;2.72;;;1.80;;
13327;SDS011;6733;51.044;3.746;2023-07-29T12:29:27;1.85;;;1.65;;
13327;SDS011;6733;51.044;3.746;2023-07-29T12:31:58;3.45;;;1.83;;
13327;SDS011;6733;51.044;3.746;2023-07-29T12:34:26;1.70;;;1.50;;
13327;SDS011;6733;51.044;3.746;2023-07-29T12:36:54;3.60;;;2.15;;
13327;SDS011;6733;51.044;3.746;2023-07-29T12:39:22;2.67;;;1.90;;
13327;SDS011;6733;51.044;3.746;2023-07-29T12:41:57;4.07;;;1.60;;
13327;SDS011;6733;51.044;3.746;2023-07-29T12:44:25;2.00;;;1.60;;
13327;SDS011;6733;51.044;3.746;2023-07-29T12:46:55;2.22;;;1.83;;
13327;SDS011;6733;51.044;3.746;2023-07-29T12:49:21;2.47;;;1.77;;
13327;SDS011;6733;51.044;3.746;2023-07-29T12:51:48;1.73;;;1.63;;
13327;SDS011;6733;51.044;3.746;2023-07-29T12:54:14;3.00;;;1.60;;
13327;SDS011;6733;51.044;3.746;2023-07-29T12:56:40;2.40;;;1.92;;
13327;SDS011;6733;51.044;3.746;2023-07-29T12:59:06;1.80;;;1.70;;
13327;SDS011;6733;51.044;3.746;2023-07-29T13:01:32;1.90;;;1.75;;
13327;SDS011;6733;51.044;3.746;2023-07-29T13:03:59;4.75;;;2.25;;
13327;SDS011;6733;51.044;3.746;2023-07-29T13:06:25;2.10;;;1.70;;
13327;SDS011;6733;51.044;3.746;2023-07-29T13:08:51;1.90;;;1.70;;
13327;SDS011;6733;51.044;3.746;2023-07-29T13:11:17;2.38;;;2.05;;
13327;SDS011;6733;51.044;3.746;2023-07-29T13:13:43;1.95;;;1.85;;
13327;SDS011;6733;51.044;3.746;2023-07-29T13:16:11;2.10;;;1.70;;
13327;SDS011;6733;51.044;3.746;2023-07-29T13:18:38;5.00;;;1.90;;
13327;SDS011;6733;51.044;3.746;2023-07-29T13:21:05;2.42;;;1.60;;
13327;SDS011;6733;51.044;3.746;2023-07-29T13:23:31;2.10;;;1.90;;
13327;SDS011;6733;51.044;3.746;2023-07-29T13:25:58;2.47;;;1.80;;
13327;SDS011;6733;51.044;3.746;2023-07-29T13:28:24;1.58;;;1.48;;
13327;SDS011;6733;51.044;3.746;2023-07-29T13:30:50;2.10;;;1.67;;
13327;SDS011;6733;51.044;3.746;2023-07-29T13:33:16;2.30;;;1.70;;
13327;SDS011;6733;51.044;3.746;2023-07-29T13:35:42;2.43;;;2.00;;
13327;SDS011;6733;51.044;3.746;2023-07-29T13:38:08;2.50;;;1.80;;
13327;SDS011;6733;51.044;3.746;2023-07-29T13:40:35;2.90;;;2.07;;
13327;SDS011;6733;51.044;3.746;2023-07-29T13:43:01;3.70;;;2.30;;
13327;SDS011;6733;51.044;3.746;2023-07-29T13:45:27;2.77;;;2.20;;
13327;SDS011;6733;51.044;3.746;2023-07-29T13:47:53;3.13;;;2.30;;
13327;SDS011;6733;51.044;3.746;2023-07-29T13:50:19;2.43;;;2.17;;
13327;SDS011;6733;51.044;3.746;2023-07-29T13:52:45;2.83;;;2.30;;
13327;SDS011;6733;51.044;3.746;2023-07-29T13:55:11;2.30;;;2.10;;
13327;SDS011;6733;51.044;3.746;2023-07-29T13:57:38;2.57;;;2.17;;
13327;SDS011;6733;51.044;3.746;2023-07-29T14:00:05;2.60;;;2.40;;
13327;SDS011;6733;51.044;3.746;2023-07-29T14:02:32;3.17;;;2.50;;
13327;SDS011;6733;51.044;3.746;2023-07-29T14:04:58;3.43;;;2.00;;
13327;SDS011;6733;51.044;3.746;2023-07-29T14:07:25;2.97;;;2.07;;
13327;SDS011;6733;51.044;3.746;2023-07-29T14:09:51;2.97;;;1.80;;
13327;SDS011;6733;51.044;3.746;2023-07-29T14:12:17;2.08;;;1.60;;
13327;SDS011;6733;51.044;3.746;2023-07-29T14:14:43;1.63;;;1.40;;
13327;SDS011;6733;51.044;3.746;2023-07-29T14:17:09;1.65;;;1.52;;
13327;SDS011;6733;51.044;3.746;2023-07-29T14:19:36;1.58;;;1.17;;
13327;SDS011;6733;51.044;3.746;2023-07-29T14:22:02;3.28;;;1.60;;
13327;SDS011;6733;51.044;3.746;2023-07-29T14:24:29;1.42;;;1.33;;
13327;SDS011;6733;51.044;3.746;2023-07-29T14:26:55;2.05;;;1.30;;
13327;SDS011;6733;51.044;3.746;2023-07-29T14:29:21;1.55;;;1.25;;
13327;SDS011;6733;51.044;3.746;2023-07-29T14:31:47;1.63;;;1.52;;
13327;SDS011;6733;51.044;3.746;2023-07-29T14:34:14;1.70;;;1.40;;
13327;SDS011;6733;51.044;3.746;2023-07-29T14:36:40;1.30;;;1.20;;
13327;SDS011;6733;51.044;3.746;2023-07-29T14:39:06;1.60;;;1.40;;
13327;SDS011;6733;51.044;3.746;2023-07-29T14:41:33;1.33;;;1.20;;
13327;SDS011;6733;51.044;3.746;2023-07-29T14:44:00;1.40;;;1.30;;
13327;SDS011;6733;51.044;3.746;2023-07-29T14:46:26;1.30;;;1.20;;
13327;SDS011;6733;51.044;3.746;2023-07-29T14:48:52;1.30;;;1.20;;
13327;SDS011;6733;51.044;3.746;2023-07-29T14:51:18;1.60;;;1.50;;
13327;SDS011;6733;51.044;3.746;2023-07-29T14:53:44;1.77;;;1.27;;
13327;SDS011;6733;51.044;3.746;2023-07-29T14:56:11;1.58;;;1.38;;
13327;SDS011;6733;51.044;3.746;2023-07-29T14:58:39;2.13;;;1.40;;
13327;SDS011;6733;51.044;3.746;2023-07-29T15:01:05;1.40;;;1.30;;
13327;SDS011;6733;51.044;3.746;2023-07-29T15:03:31;1.77;;;1.38;;
13327;SDS011;6733;51.044;3.746;2023-07-29T15:05:57;2.83;;;1.58;;
13327;SDS011;6733;51.044;3.746;2023-07-29T15:08:25;1.58;;;1.40;;
13327;SDS011;6733;51.044;3.746;2023-07-29T15:10:51;2.15;;;1.58;;
13327;SDS011;6733;51.044;3.746;2023-07-29T15:13:17;2.30;;;1.52;;
13327;SDS011;6733;51.044;3.746;2023-07-29T15:15:43;3.45;;;1.75;;
13327;SDS011;6733;51.044;3.746;2023-07-29T15:18:10;1.95;;;1.73;;
13327;SDS011;6733;51.044;3.746;2023-07-29T15:20:36;1.67;;;1.50;;
13327;SDS011;6733;51.044;3.746;2023-07-29T15:23:02;2.00;;;1.80;;
13327;SDS011;6733;51.044;3.746;2023-07-29T15:25:28;2.85;;;1.60;;
13327;SDS011;6733;51.044;3.746;2023-07-29T15:27:55;2.03;;;1.70;;
13327;SDS011;6733;51.044;3.746;2023-07-29T15:30:21;2.85;;;1.77;;
13327;SDS011;6733;51.044;3.746;2023-07-29T15:32:47;3.67;;;1.65;;
13327;SDS011;6733;51.044;3.746;2023-07-29T15:35:13;3.00;;;1.80;;